createdAt,value
2019-05-13T00:00:34.166Z,99521.89
2019-05-13T00:02:43.641Z,99518.58
2019-05-13T00:04:49.951Z,99519.28
2019-05-13T00:06:57.782Z,99533.08
2019-05-13T00:09:07.550Z,99533.41
2019-05-13T00:11:14.584Z,99535.42
2019-05-13T00:13:23.653Z,99547.25
2019-05-13T00:15:33.957Z,99548.10
2019-05-13T00:17:40.921Z,99548.56
2019-05-13T00:19:48.060Z,99549.77
2019-05-13T00:22:03.549Z,99558.20
2019-05-13T00:24:15.754Z,99568.16
2019-05-13T00:26:24.430Z,99574.80
2019-05-13T00:28:33.976Z,99562.97
2019-05-13T00:30:40.403Z,99570.17
2019-05-13T00:32:47.462Z,99572.94
2019-05-13T00:34:54.497Z,99571.80
2019-05-13T00:37:08.856Z,99569.52
2019-05-13T00:39:11.421Z,99569.52
2019-05-13T00:41:18.439Z,99568.60
2019-05-13T00:43:25.465Z,99570.27
2019-05-13T00:45:34.028Z,99566.97
2019-05-13T00:47:47.403Z,99575.09
2019-05-13T00:50:04.574Z,99580.05
2019-05-13T00:52:14.922Z,99576.33
2019-05-13T00:54:23.888Z,99581.97
2019-05-13T00:56:31.083Z,99575.88
2019-05-13T00:58:38.150Z,99572.23
2019-05-13T01:00:45.664Z,99579.27
2019-05-13T01:02:53.347Z,99579.56
2019-05-13T01:05:00.539Z,99565.94
2019-05-13T01:07:21.107Z,99569.23
2019-05-13T01:09:16.308Z,99576.82
2019-05-13T01:11:23.743Z,99569.48
2019-05-13T01:13:34.348Z,99568.87
2019-05-13T01:15:47.470Z,99575.23
2019-05-13T01:18:00.308Z,99580.28
2019-05-13T01:20:14.431Z,99582.53
2019-05-13T01:22:24.008Z,99577.89
2019-05-13T01:24:33.378Z,99578.78
2019-05-13T01:26:39.989Z,99576.72
2019-05-13T01:28:47.576Z,99587.45
2019-05-13T01:30:54.632Z,99589.04
2019-05-13T01:33:04.074Z,99585.39
2019-05-13T01:35:10.639Z,99584.66
2019-05-13T01:37:17.701Z,99589.44
2019-05-13T01:39:24.932Z,99586.72
2019-05-13T01:41:33.360Z,99584.17
2019-05-13T01:43:46.700Z,99592.86
2019-05-13T01:46:04.548Z,99602.66
2019-05-13T01:48:14.733Z,99592.73
2019-05-13T01:50:27.795Z,99601.20
2019-05-13T01:52:36.846Z,99597.27
2019-05-13T01:54:44.349Z,99596.48
2019-05-13T01:56:53.523Z,99599.58
2019-05-13T01:59:00.309Z,99601.30
2019-05-13T02:01:07.339Z,99593.80
2019-05-13T02:03:14.787Z,99598.00
2019-05-13T02:05:24.093Z,99598.45
2019-05-13T02:07:30.705Z,99609.92
2019-05-13T02:09:37.829Z,99602.27
2019-05-13T02:11:47.778Z,99611.06
2019-05-13T02:13:54.816Z,99613.13
2019-05-13T02:16:03.935Z,99617.91
2019-05-13T02:18:10.685Z,99613.22
2019-05-13T02:20:18.471Z,99617.52
2019-05-13T02:22:25.528Z,99617.22
2019-05-13T02:24:34.110Z,99624.81
2019-05-13T02:26:43.718Z,99613.83
2019-05-13T02:28:50.613Z,99622.33
2019-05-13T02:30:57.743Z,99623.45
2019-05-13T02:33:07.712Z,99627.56
2019-05-13T02:35:16.583Z,99624.67
2019-05-13T02:37:23.629Z,99622.16
2019-05-13T02:39:32.901Z,99630.72
2019-05-13T02:41:42.505Z,99628.37
2019-05-13T02:43:52.397Z,99628.37
2019-05-13T02:45:58.164Z,99629.98
2019-05-13T02:48:05.532Z,99627.84
2019-05-13T02:50:13.418Z,99621.83
2019-05-13T02:52:22.424Z,99623.86
2019-05-13T02:54:38.240Z,99607.31
2019-05-13T02:56:52.613Z,99615.89
2019-05-13T02:59:05.955Z,99608.14
2019-05-13T03:01:22.360Z,99622.70
2019-05-13T03:03:32.680Z,99615.95
2019-05-13T03:05:42.783Z,99642.77
2019-05-13T03:07:48.854Z,99621.28
2019-05-13T03:09:55.968Z,99623.48
2019-05-13T03:12:04.326Z,99631.20
2019-05-13T03:14:12.835Z,99632.02
2019-05-13T03:16:23.102Z,99633.69
2019-05-13T03:18:33.516Z,99630.14
2019-05-13T03:20:44.891Z,99626.78
2019-05-13T03:23:03.015Z,99634.75
2019-05-13T03:25:15.781Z,99642.28
2019-05-13T03:27:33.300Z,99648.72
2019-05-13T03:29:43.182Z,99655.26
2019-05-13T03:31:54.868Z,99656.05
2019-05-13T03:33:58.145Z,99657.45
2019-05-13T03:36:07.841Z,99656.83
2019-05-13T03:38:14.178Z,99661.02
2019-05-13T03:40:23.371Z,99653.67
2019-05-13T03:42:34.149Z,99662.58
2019-05-13T03:44:44.861Z,99669.23
2019-05-13T03:46:57.316Z,99657.84
2019-05-13T03:49:14.112Z,99659.94
2019-05-13T03:51:33.390Z,99655.73
2019-05-13T03:53:53.587Z,99668.09
2019-05-13T03:56:03.601Z,99657.45
2019-05-13T03:58:13.269Z,99664.36
2019-05-13T04:00:23.595Z,99663.72
2019-05-13T04:02:32.571Z,99657.59
2019-05-13T04:04:42.115Z,99646.87
2019-05-13T04:06:47.931Z,99666.61
2019-05-13T04:09:15.714Z,99668.22
2019-05-13T04:11:06.059Z,99662.69
2019-05-13T04:13:13.479Z,99662.68
2019-05-13T04:15:23.481Z,99668.53
2019-05-13T04:17:32.596Z,99662.48
2019-05-13T04:19:42.401Z,99673.05
2019-05-13T04:21:52.632Z,99674.31
2019-05-13T04:23:58.544Z,99683.44
2019-05-13T04:26:07.492Z,99676.75
2019-05-13T04:28:14.529Z,99698.33
2019-05-13T04:30:23.050Z,99679.68
2019-05-13T04:32:33.513Z,99689.17
2019-05-13T04:34:41.546Z,99699.51
2019-05-13T04:36:47.756Z,99689.99
2019-05-13T04:38:58.399Z,99687.42
2019-05-13T04:41:12.143Z,99686.46
2019-05-13T04:43:33.713Z,99695.22
2019-05-13T04:45:43.432Z,99704.80
2019-05-13T04:47:52.850Z,99696.80
2019-05-13T04:50:02.942Z,99692.45
2019-05-13T04:52:09.226Z,99690.86
2019-05-13T04:54:16.249Z,99703.35
2019-05-13T04:56:23.587Z,99707.20
2019-05-13T04:58:32.233Z,99701.06
2019-05-13T05:01:02.323Z,99713.33
2019-05-13T05:03:33.512Z,99714.82
2019-05-13T05:06:33.193Z,99719.51
2019-05-13T05:09:12.843Z,99714.09
2019-05-13T05:12:02.907Z,99722.19
2019-05-13T05:14:52.195Z,99715.22
2019-05-13T05:17:22.501Z,99719.11
2019-05-13T05:19:55.799Z,99727.59
2019-05-13T05:22:53.871Z,99728.38
2019-05-13T05:25:29.304Z,99722.95
2019-05-13T05:28:08.452Z,99727.38
2019-05-13T05:31:03.426Z,99724.77
2019-05-13T05:33:41.169Z,99728.72
2019-05-13T05:36:21.821Z,99732.93
2019-05-13T05:39:12.317Z,99734.97
2019-05-13T05:41:22.901Z,99729.82
2019-05-13T05:43:31.754Z,99734.54
2019-05-13T05:45:41.740Z,99734.06
2019-05-13T05:47:52.357Z,99733.13
2019-05-13T05:50:02.831Z,99749.17
2019-05-13T05:52:12.293Z,99735.98
2019-05-13T05:54:22.920Z,99733.41
2019-05-13T05:56:33.022Z,99748.61
2019-05-13T05:58:42.523Z,99756.63
2019-05-13T06:00:52.108Z,99735.78
2019-05-13T06:03:02.538Z,99732.19
2019-05-13T06:05:12.638Z,99743.72
2019-05-13T06:07:22.043Z,99741.15
2019-05-13T06:09:31.507Z,99747.48
2019-05-13T06:11:38.198Z,99753.44
2019-05-13T06:13:45.229Z,99755.22
2019-05-13T06:15:52.341Z,99751.49
2019-05-13T06:18:02.269Z,99748.52
2019-05-13T06:20:13.217Z,99750.36
2019-05-13T06:22:18.907Z,99751.20
2019-05-13T06:24:32.548Z,99753.86
2019-05-13T06:26:42.045Z,99760.77
2019-05-13T06:28:49.355Z,99765.70
2019-05-13T06:30:58.520Z,99766.97
2019-05-13T06:33:05.755Z,99768.50
2019-05-13T06:35:12.886Z,99769.12
2019-05-13T06:37:21.681Z,99779.66
2019-05-13T06:39:31.568Z,99778.08
2019-05-13T06:41:38.166Z,99777.20
2019-05-13T06:43:45.263Z,99794.30
2019-05-13T06:46:01.911Z,99776.97
2019-05-13T06:48:11.717Z,99785.88
2019-05-13T06:50:19.158Z,99795.58
2019-05-13T06:52:26.190Z,99793.41
2019-05-13T06:54:33.463Z,99792.87
2019-05-13T06:56:42.875Z,99792.76
2019-05-13T06:58:51.724Z,99794.25
2019-05-13T07:00:58.869Z,99802.27
2019-05-13T07:03:09.086Z,99804.78
2019-05-13T07:05:22.646Z,99806.42
2019-05-13T07:07:31.937Z,99813.16
2019-05-13T07:09:39.293Z,99809.70
2019-05-13T07:11:46.435Z,99811.04
2019-05-13T07:13:53.625Z,99813.30
2019-05-13T07:16:01.361Z,99818.08
2019-05-13T07:18:08.565Z,99832.03
2019-05-13T07:20:16.440Z,99833.66
2019-05-13T07:22:23.640Z,99828.98
2019-05-13T07:24:36.383Z,99832.41
2019-05-13T07:26:43.442Z,99842.64
2019-05-13T07:28:52.419Z,99838.51
2019-05-13T07:30:59.324Z,99836.98
2019-05-13T07:33:08.383Z,99842.41
2019-05-13T07:35:17.748Z,99839.94
2019-05-13T07:37:27.231Z,99836.44
2019-05-13T07:39:34.274Z,99832.61
2019-05-13T07:41:43.413Z,99835.89
2019-05-13T07:43:51.700Z,99834.48
2019-05-13T07:45:59.102Z,99845.98
2019-05-13T07:48:19.391Z,99846.31
2019-05-13T07:50:15.958Z,99838.95
2019-05-13T07:52:23.330Z,99843.80
2019-05-13T07:54:33.440Z,99842.83
2019-05-13T07:56:42.585Z,99841.93
2019-05-13T07:58:52.178Z,99856.89
2019-05-13T08:00:58.412Z,99846.22
2019-05-13T08:03:05.451Z,99856.23
2019-05-13T08:05:13.391Z,99855.33
2019-05-13T08:07:22.652Z,99854.00
2019-05-13T08:09:31.140Z,99851.67
2019-05-13T08:11:56.255Z,99854.06
2019-05-13T08:13:46.694Z,99851.23
2019-05-13T08:15:54.739Z,99850.78
2019-05-13T08:18:02.230Z,99853.42
2019-05-13T08:20:12.490Z,99853.74
2019-05-13T08:22:21.809Z,99862.14
2019-05-13T08:24:31.484Z,99842.22
2019-05-13T08:26:45.183Z,99859.68
2019-05-13T08:29:00.050Z,99867.78
2019-05-13T08:30:56.127Z,99868.26
2019-05-13T08:33:03.206Z,99869.24
2019-05-13T08:35:12.493Z,99860.60
2019-05-13T08:37:21.715Z,99870.78
2019-05-13T08:39:35.678Z,99869.03
2019-05-13T08:41:37.592Z,99871.66
2019-05-13T08:43:52.706Z,99882.50
2019-05-13T08:46:02.003Z,99870.83
2019-05-13T08:48:08.644Z,99896.83
2019-05-13T08:50:15.930Z,99889.70
2019-05-13T08:52:23.081Z,99861.31
2019-05-13T08:54:32.420Z,99868.39
2019-05-13T08:56:41.447Z,99864.84
2019-05-13T08:58:47.733Z,99873.88
2019-05-13T09:00:58.984Z,99885.20
2019-05-13T09:03:06.364Z,99894.31
2019-05-13T09:05:14.798Z,99877.56
2019-05-13T09:07:24.286Z,99874.78
2019-05-13T09:09:31.501Z,99873.06
2019-05-13T09:11:38.807Z,99880.30
2019-05-13T09:13:45.911Z,99872.95
2019-05-13T09:15:52.954Z,99886.02
2019-05-13T09:18:02.171Z,99876.34
2019-05-13T09:20:11.488Z,99875.61
2019-05-13T09:22:18.180Z,99884.18
2019-05-13T09:24:33.325Z,99887.44
2019-05-13T09:26:34.855Z,99883.84
2019-05-13T09:28:41.907Z,99888.97
2019-05-13T09:30:52.746Z,99888.59
2019-05-13T09:33:01.993Z,99889.78
2019-05-13T09:35:11.810Z,99883.30
2019-05-13T09:37:18.479Z,99886.84
2019-05-13T09:39:25.983Z,99893.84
2019-05-13T09:41:38.574Z,99899.77
2019-05-13T09:43:42.086Z,99898.32
2019-05-13T09:45:49.263Z,99902.82
2019-05-13T09:47:58.184Z,99896.97
2019-05-13T09:50:06.665Z,99902.88
2019-05-13T09:52:13.704Z,99897.50
2019-05-13T09:54:22.292Z,99892.86
2019-05-13T09:56:32.054Z,99906.25
2019-05-13T09:58:41.886Z,99891.36
2019-05-13T10:00:48.275Z,99899.48
2019-05-13T10:02:58.427Z,99900.45
2019-05-13T10:05:07.392Z,99903.75
2019-05-13T10:07:14.610Z,99898.81
2019-05-13T10:09:21.849Z,99902.39
2019-05-13T10:11:29.005Z,99896.03
2019-05-13T10:13:36.117Z,99892.93
2019-05-13T10:15:48.746Z,99893.38
2019-05-13T10:17:53.959Z,99893.72
2019-05-13T10:20:01.079Z,99887.12
2019-05-13T10:22:08.485Z,99889.53
2019-05-13T10:24:15.590Z,99893.19
2019-05-13T10:26:22.959Z,99888.48
2019-05-13T10:28:32.104Z,99901.81
2019-05-13T10:30:39.402Z,99891.07
2019-05-13T10:32:46.484Z,99899.94
2019-05-13T10:34:55.568Z,99895.27
2019-05-13T10:37:03.145Z,99893.25
2019-05-13T10:39:11.893Z,99880.28
2019-05-13T10:41:19.275Z,99883.77
2019-05-13T10:43:31.754Z,99894.78
2019-05-13T10:45:37.549Z,99900.20
2019-05-13T10:47:44.684Z,99891.98
2019-05-13T10:49:52.825Z,99885.58
2019-05-13T10:52:02.832Z,99882.00
2019-05-13T10:54:09.021Z,99885.18
2019-05-13T10:56:16.187Z,99887.06
2019-05-13T10:58:23.668Z,99882.44
2019-05-13T11:00:47.195Z,99885.88
2019-05-13T11:03:00.540Z,99888.75
2019-05-13T11:05:08.588Z,99886.45
2019-05-13T11:07:15.710Z,99877.88
2019-05-13T11:09:23.191Z,99877.15
2019-05-13T11:11:33.298Z,99889.39
2019-05-13T11:13:52.156Z,99882.60
2019-05-13T11:15:50.012Z,99881.36
2019-05-13T11:17:58.117Z,99878.66
2019-05-13T11:20:07.931Z,99888.32
2019-05-13T11:22:17.643Z,99883.98
2019-05-13T11:24:24.747Z,99882.33
2019-05-13T11:26:36.147Z,99880.94
2019-05-13T11:28:42.938Z,99886.20
2019-05-13T11:30:51.907Z,99886.95
2019-05-13T11:32:58.272Z,99892.23
2019-05-13T11:35:07.316Z,99889.47
2019-05-13T11:37:15.000Z,99886.92
2019-05-13T11:39:22.523Z,99882.41
2019-05-13T11:41:29.557Z,99883.28
2019-05-13T11:43:36.668Z,99891.76
2019-05-13T11:45:43.757Z,99881.77
2019-05-13T11:47:52.208Z,99871.51
2019-05-13T11:50:02.397Z,99890.11
2019-05-13T11:52:11.105Z,99883.76
2019-05-13T11:54:17.996Z,99870.56
2019-05-13T11:56:25.068Z,99874.81
2019-05-13T11:58:32.615Z,99876.71
2019-05-13T12:00:53.252Z,99894.46
2019-05-13T12:03:03.586Z,99881.56
2019-05-13T12:05:10.186Z,99885.41
2019-05-13T12:07:17.341Z,99891.55
2019-05-13T12:09:26.212Z,99871.98
2019-05-13T12:11:33.552Z,99886.73
2019-05-13T12:13:42.629Z,99876.78
2019-05-13T12:15:51.127Z,99886.14
2019-05-13T12:17:58.581Z,99881.12
2019-05-13T12:20:07.318Z,99879.72
2019-05-13T12:22:14.435Z,99870.45
2019-05-13T12:24:22.771Z,99874.91
2019-05-13T12:26:33.319Z,99875.84
2019-05-13T12:28:38.774Z,99877.13
2019-05-13T12:30:45.956Z,99872.23
2019-05-13T12:32:53.025Z,99870.89
2019-05-13T12:35:03.406Z,99867.28
2019-05-13T12:37:12.033Z,99875.50
2019-05-13T12:39:18.166Z,99869.13
2019-05-13T12:41:25.224Z,99871.86
2019-05-13T12:43:32.458Z,99873.69
2019-05-13T12:45:42.782Z,99860.33
2019-05-13T12:47:48.352Z,99865.47
2019-05-13T12:49:55.735Z,99866.44
2019-05-13T12:52:04.560Z,99856.75
2019-05-13T12:54:13.578Z,99862.61
2019-05-13T12:56:23.375Z,99864.31
2019-05-13T12:58:33.554Z,99869.16
2019-05-13T13:00:38.359Z,99868.91
2019-05-13T13:02:51.648Z,99883.53
2019-05-13T13:05:10.870Z,99869.30
2019-05-13T13:07:05.181Z,99870.38
2019-05-13T13:09:14.134Z,99868.84
2019-05-13T13:11:22.838Z,99869.65
2019-05-13T13:13:56.215Z,99875.41
2019-05-13T13:15:48.966Z,99869.11
2019-05-13T13:17:54.076Z,99865.09
2019-05-13T13:20:08.791Z,99875.48
2019-05-13T13:22:13.345Z,99872.94
2019-05-13T13:24:23.258Z,99875.33
2019-05-13T13:26:27.739Z,99877.80
2019-05-13T13:28:34.817Z,99874.39
2019-05-13T13:30:44.252Z,99878.42
2019-05-13T13:35:03.398Z,99877.05
2019-05-13T13:37:09.963Z,99874.02
2019-05-13T13:39:17.019Z,99871.07
2019-05-13T13:41:24.159Z,99873.64
2019-05-13T13:43:36.974Z,99872.88
2019-05-13T13:47:59.251Z,99867.50
2019-05-13T13:49:59.502Z,99860.37
2019-05-13T13:52:06.761Z,99866.35
2019-05-13T13:54:14.182Z,99864.41
2019-05-13T13:56:25.260Z,99857.48
2019-05-13T13:58:32.723Z,99856.18
2019-05-13T14:00:55.099Z,99856.64
2019-05-13T14:02:53.747Z,99857.92
2019-05-13T14:04:57.933Z,99860.42
2019-05-13T14:07:09.453Z,99875.71
2019-05-13T14:07:22.636Z,99857.56
2019-05-13T14:09:15.740Z,99869.80
2019-05-13T14:11:23.392Z,99859.64
2019-05-13T14:13:32.400Z,99852.14
2019-05-13T14:15:41.773Z,99870.07
2019-05-13T14:17:48.249Z,99858.41
2019-05-13T14:19:55.401Z,99871.67
2019-05-13T14:22:02.544Z,99860.95
2019-05-13T14:24:11.888Z,99862.70
2019-05-13T14:26:18.454Z,99857.29
2019-05-13T14:28:25.576Z,99863.05
2019-05-13T14:30:33.035Z,99866.27
2019-05-13T14:32:42.424Z,99865.55
2019-05-13T14:34:49.439Z,99865.30
2019-05-13T14:37:01.158Z,99859.77
2019-05-13T14:39:12.066Z,99859.76
2019-05-13T14:41:21.772Z,99850.45
2019-05-13T14:43:28.305Z,99858.41
2019-05-13T14:45:35.462Z,99853.64
2019-05-13T14:47:42.575Z,99855.47
2019-05-13T14:49:51.648Z,99854.70
2019-05-13T14:51:58.561Z,99841.28
2019-05-13T14:54:05.862Z,99850.09
2019-05-13T14:56:14.483Z,99859.28
2019-05-13T14:58:22.028Z,99857.88
2019-05-13T15:00:32.530Z,99857.48
2019-05-13T15:02:38.332Z,99853.73
2019-05-13T15:04:45.436Z,99852.14
2019-05-13T15:06:52.748Z,99849.73
2019-05-13T15:09:01.729Z,99861.02
2019-05-13T15:11:12.354Z,99853.50
2019-05-13T15:13:18.705Z,99853.02
2019-05-13T15:15:25.763Z,99855.31
2019-05-13T15:17:34.809Z,99845.92
2019-05-13T15:19:42.063Z,99857.52
2019-05-13T15:21:51.904Z,99847.63
2019-05-13T15:23:58.208Z,99847.77
2019-05-13T15:26:05.377Z,99852.45
2019-05-13T15:28:12.507Z,99852.53
2019-05-13T15:30:21.850Z,99850.53
2019-05-13T15:32:28.727Z,99852.09
2019-05-13T15:34:36.069Z,99844.09
2019-05-13T15:36:44.473Z,99854.64
2019-05-13T15:38:52.146Z,99837.55
2019-05-13T15:41:01.190Z,99842.49
2019-05-13T15:43:08.158Z,99844.78
2019-05-13T15:45:15.918Z,99840.72
2019-05-13T15:47:26.606Z,99834.88
2019-05-13T15:49:34.886Z,99840.70
2019-05-13T15:51:42.318Z,99843.63
2019-05-13T15:53:51.699Z,99837.80
2019-05-13T15:56:02.518Z,99838.86
2019-05-13T15:58:11.748Z,99847.30
2019-05-13T16:00:21.924Z,99853.80
2019-05-13T16:02:28.664Z,99839.00
2019-05-13T16:04:49.076Z,99847.16
2019-05-13T16:06:45.674Z,99849.78
2019-05-13T16:08:52.778Z,99848.70
2019-05-13T16:11:02.245Z,99864.08
2019-05-13T16:13:08.700Z,99860.64
2019-05-13T16:15:17.932Z,99853.53
2019-05-13T16:17:37.913Z,99860.41
2019-05-13T16:19:33.852Z,99862.53
2019-05-13T16:21:41.558Z,99870.34
2019-05-13T16:23:48.886Z,99869.02
2019-05-13T16:25:56.066Z,99879.70
2019-05-13T16:28:06.239Z,99879.16
2019-05-13T16:30:13.594Z,99871.42
2019-05-13T16:32:22.730Z,99873.31
2019-05-13T16:34:31.734Z,99873.77
2019-05-13T16:36:38.645Z,99869.11
2019-05-13T16:38:46.823Z,99874.00
2019-05-13T16:40:54.178Z,99871.41
2019-05-13T16:43:01.425Z,99867.55
2019-05-13T16:45:08.809Z,99872.66
2019-05-13T16:47:16.015Z,99872.05
2019-05-13T16:49:23.118Z,99877.44
2019-05-13T16:51:31.757Z,99873.08
2019-05-13T16:53:38.964Z,99875.27
2019-05-13T16:55:46.084Z,99871.16
2019-05-13T16:57:53.128Z,99870.63
2019-05-13T17:00:02.256Z,99864.64
2019-05-13T17:02:09.128Z,99876.34
2019-05-13T17:04:16.166Z,99877.11
2019-05-13T17:06:23.308Z,99875.77
2019-05-13T17:08:31.866Z,99880.12
2019-05-13T17:10:39.372Z,99882.44
2019-05-13T17:12:46.504Z,99885.28
2019-05-13T17:14:53.567Z,99887.83
2019-05-13T17:17:01.196Z,99886.45
2019-05-13T17:19:08.554Z,99886.00
2019-05-13T17:21:15.789Z,99886.70
2019-05-13T17:23:22.956Z,99879.27
2019-05-13T17:25:30.155Z,99885.93
2019-05-13T17:27:37.370Z,99890.78
2019-05-13T17:29:44.419Z,99886.64
2019-05-13T17:31:51.640Z,99890.81
2019-05-13T17:34:01.758Z,99889.73
2019-05-13T17:36:08.894Z,99891.00
2019-05-13T17:38:15.997Z,99890.05
2019-05-13T17:40:23.049Z,99892.83
2019-05-13T17:42:31.950Z,99898.94
2019-05-13T17:44:38.946Z,99897.82
2019-05-13T17:46:45.996Z,99904.42
2019-05-13T17:48:53.085Z,99898.16
2019-05-13T17:51:01.421Z,99895.06
2019-05-13T17:53:11.174Z,99904.21
2019-05-13T17:55:17.603Z,99898.33
2019-05-13T17:57:24.822Z,99906.19
2019-05-13T17:59:32.061Z,99903.36
2019-05-13T18:01:41.240Z,99907.30
2019-05-13T18:03:49.005Z,99907.02
2019-05-13T18:05:56.054Z,99917.59
2019-05-13T18:08:03.111Z,99915.54
2019-05-13T18:10:12.046Z,99915.23
2019-05-13T18:12:22.137Z,99913.49
2019-05-13T18:14:30.218Z,99913.02
2019-05-13T18:16:37.369Z,99918.28
2019-05-13T18:18:47.438Z,99913.30
2019-05-13T18:20:54.140Z,99914.98
2019-05-13T18:23:01.726Z,99918.20
2019-05-13T18:25:11.736Z,99918.96
2019-05-13T18:27:18.406Z,99917.13
2019-05-13T18:29:25.477Z,99910.30
2019-05-13T18:31:33.203Z,99931.90
2019-05-13T18:33:43.129Z,99930.73
2019-05-13T18:35:52.397Z,99935.89
2019-05-13T18:38:01.150Z,99930.38
2019-05-13T18:40:11.422Z,99924.02
2019-05-13T18:42:17.844Z,99932.05
2019-05-13T18:44:26.595Z,99937.81
2019-05-13T18:46:33.852Z,99940.84
2019-05-13T18:48:57.674Z,99934.25
2019-05-13T18:50:52.107Z,99933.92
2019-05-13T18:52:58.566Z,99936.48
2019-05-13T18:55:07.901Z,99939.78
2019-05-13T18:57:15.025Z,99944.12
2019-05-13T18:59:22.056Z,99952.53
2019-05-13T19:01:32.068Z,99953.50
2019-05-13T19:03:41.321Z,99957.34
2019-05-13T19:05:47.955Z,99961.57
2019-05-13T19:07:56.238Z,99967.66
2019-05-13T19:10:03.468Z,99968.42
2019-05-13T19:12:11.626Z,99970.36
2019-05-13T19:14:21.123Z,99972.16
2019-05-13T19:16:27.773Z,99971.27
2019-05-13T19:18:34.956Z,99971.84
2019-05-13T19:20:42.041Z,99963.59
2019-05-13T19:22:49.087Z,99962.78
2019-05-13T19:24:58.026Z,99966.70
2019-05-13T19:27:07.941Z,99964.05
2019-05-13T19:29:15.056Z,99954.69
2019-05-13T19:31:22.410Z,99959.33
2019-05-13T19:33:31.586Z,99960.44
2019-05-13T19:35:38.637Z,99958.42
2019-05-13T19:37:45.680Z,99951.44
2019-05-13T19:39:52.849Z,99948.71
2019-05-13T19:42:00.967Z,99952.39
2019-05-13T19:44:08.078Z,99947.58
2019-05-13T19:46:15.290Z,99953.38
2019-05-13T19:48:22.558Z,99943.66
2019-05-13T19:50:31.545Z,99947.84
2019-05-13T19:52:38.779Z,99945.95
2019-05-13T19:54:45.916Z,99942.68
2019-05-13T19:56:53.167Z,99946.23
2019-05-13T19:59:02.940Z,99933.84
2019-05-13T20:01:11.677Z,99932.45
2019-05-13T20:03:18.970Z,99924.14
2019-05-13T20:05:27.828Z,99929.25
2019-05-13T20:09:42.851Z,99927.73
2019-05-13T20:11:54.983Z,99932.72
2019-05-13T20:14:01.335Z,99925.37
2019-05-13T20:16:11.693Z,99920.59
2019-05-13T20:18:19.375Z,99922.54
2019-05-13T20:20:26.668Z,99916.98
2019-05-13T20:22:33.789Z,99918.47
2019-05-13T20:24:41.975Z,99914.67
2019-05-13T20:26:52.287Z,99915.45
2019-05-13T20:29:01.548Z,99911.44
2019-05-13T20:31:11.067Z,99911.05
2019-05-13T20:33:18.311Z,99909.92
2019-05-13T20:35:25.496Z,99905.28
2019-05-13T20:37:32.581Z,99908.19
2019-05-13T20:39:42.281Z,99897.84
2019-05-13T20:41:48.464Z,99902.87
2019-05-13T20:43:55.602Z,99907.30
2019-05-13T20:46:02.852Z,99905.15
2019-05-13T20:48:12.102Z,99901.66
2019-05-13T20:50:21.496Z,99897.09
2019-05-13T20:52:28.177Z,99894.30
2019-05-13T20:54:35.269Z,99892.11
2019-05-13T20:56:42.478Z,99891.66
2019-05-13T20:58:51.604Z,99882.30
2019-05-13T21:00:58.472Z,99881.81
2019-05-13T21:03:05.610Z,99875.12
2019-05-13T21:05:13.307Z,99872.97
2019-05-13T21:07:21.734Z,99869.95
2019-05-13T21:09:29.005Z,99869.09
2019-05-13T21:11:36.692Z,99870.05
2019-05-13T21:13:43.740Z,99864.87
2019-05-13T21:15:51.885Z,99865.70
2019-05-13T21:17:59.104Z,99861.50
2019-05-13T21:20:18.637Z,99854.67
2019-05-13T21:22:16.712Z,99855.50
2019-05-13T21:24:23.761Z,99850.20
2019-05-13T21:26:31.453Z,99849.33
2019-05-13T21:28:38.761Z,99845.83
2019-05-13T21:30:45.875Z,99848.50
2019-05-13T21:32:52.927Z,99845.77
2019-05-13T21:35:01.733Z,99847.06
2019-05-13T21:37:11.383Z,99846.38
2019-05-13T21:39:17.800Z,99845.12
2019-05-13T21:41:24.957Z,99847.62
2019-05-13T21:43:32.505Z,99847.31
2019-05-13T21:45:41.563Z,99843.09
2019-05-13T21:47:48.448Z,99844.42
2019-05-13T21:49:55.501Z,99840.55
2019-05-13T21:52:02.720Z,99842.69
2019-05-13T21:54:11.747Z,99847.19
2019-05-13T21:56:22.940Z,99851.00
2019-05-13T21:58:27.446Z,99853.88
2019-05-13T22:00:36.244Z,99852.98
2019-05-13T22:02:48.187Z,99841.98
2019-05-13T22:04:55.239Z,99842.44
2019-05-13T22:07:02.388Z,99842.06
2019-05-13T22:09:11.875Z,99844.59
2019-05-13T22:11:19.111Z,99841.19
2019-05-13T22:13:26.273Z,99845.41
2019-05-13T22:15:33.482Z,99844.06
2019-05-13T22:17:42.204Z,99841.52
2019-05-13T22:19:51.261Z,99845.45
2019-05-13T22:21:58.454Z,99845.09
2019-05-13T22:24:05.577Z,99842.92
2019-05-13T22:26:12.710Z,99839.61
2019-05-13T22:28:21.959Z,99831.27
2019-05-13T22:30:28.653Z,99819.39
2019-05-13T22:32:35.744Z,99818.91
2019-05-13T22:34:42.791Z,99818.46
2019-05-13T22:36:51.679Z,99819.05
2019-05-13T22:38:58.699Z,99810.98
2019-05-13T22:41:05.815Z,99815.30
2019-05-13T22:43:12.874Z,99810.67
2019-05-13T22:45:21.957Z,99811.53
2019-05-13T22:47:31.503Z,99812.31
2019-05-13T22:49:38.770Z,99812.73
2019-05-13T22:51:45.854Z,99808.73
2019-05-13T22:53:53.484Z,99800.21
2019-05-13T22:56:03.554Z,99804.91
2019-05-13T22:58:10.635Z,99806.71
2019-05-13T23:00:18.090Z,99797.92
2019-05-13T23:02:26.743Z,99793.23
2019-05-13T23:04:33.830Z,99800.05
2019-05-13T23:06:40.979Z,99794.50
2019-05-13T23:08:48.032Z,99793.27
2019-05-13T23:10:56.211Z,99792.89
2019-05-13T23:13:03.333Z,99793.72
2019-05-13T23:15:11.942Z,99782.30
2019-05-13T23:17:21.399Z,99780.17
2019-05-13T23:19:32.065Z,99769.27
2019-05-13T23:21:38.551Z,99774.23
2019-05-13T23:23:45.699Z,99773.07
2019-05-13T23:25:52.850Z,99774.68
2019-05-13T23:28:00.014Z,99772.07
2019-05-13T23:30:08.917Z,99768.62
2019-05-13T23:32:15.967Z,99765.75
2019-05-13T23:34:23.025Z,99770.80
2019-05-13T23:36:31.636Z,99766.58
2019-05-13T23:38:41.775Z,99767.38
2019-05-13T23:40:48.831Z,99763.98
2019-05-13T23:42:55.976Z,99760.77
2019-05-13T23:45:03.400Z,99758.63
2019-05-13T23:47:11.503Z,99756.09
2019-05-13T23:49:20.933Z,99744.70
2019-05-13T23:51:27.535Z,99738.33
2019-05-13T23:53:34.580Z,99732.48
2019-05-13T23:55:41.658Z,99734.45
2019-05-13T23:57:48.716Z,99731.66
2019-05-13T23:59:55.775Z,99733.73
